Lake Charles, LA (70607)

1:09 PM CDT on September 02, 2015 (GMT -0500)
The Meadow | | Change Station
CLOSE
Current Station
Personal Weather Station
Location: Lake Charles, LA
Elevation: 26 ft
Nearby Weather Stations

Elev 26 ft 30.15 °N, 93.23 °W | Updated 12 minutes ago

Clear
Clear
88.0 °F
Feels Like 97 °F
N
3.0
Wind Variable Wind from SE
Gusts 6.0 mph

Today
High -- | Low -- °F
--% Chance of Precip.
Yesterday
High -- | Low -- °F
Precip. -- in
6:50 AM 7:34 PM
Waning Gibbous, 78% visible
Pressure 30.06 in
Visibility 10.0 miles
Clouds Few 4100 ft
Scattered Clouds 6500 ft
Heat Index 97 °F
Dew Point 74 °F
Humidity 63%
Rainfall 0.02 in
Snow Depth Not available.
UV 9 out of 12
Pollen 6.40 out of 12
Air Quality Not available.
Flu Activity Not available.
METAR KLCH 021753Z 12008KT 10SM FEW041 SCT065 31/22 A3004 RMK AO2 SLP178 T03110217 10317 20233 58004
Pressure 30.06 in
Visibility 10.0 miles
Clouds Few 4100 ft
Scattered Clouds 6500 ft
Heat Index 97 °F
Dew Point 74 °F
Humidity 63%
Rainfall 0.02 in
Snow Depth Not available.
UV 9 out of 12
Pollen 6.40 out of 12
Air Quality Not available.
Flu Activity Not available.
METAR KLCH 021753Z 12008KT 10SM FEW041 SCT065 31/22 A3004 RMK AO2 SLP178 T03110217 10317 20233 58004

10-Day Weather Forecast

×

Almanac

Astronomy

Sep. 02, 2015 Rise Set
Actual Time
Civil Twilight
Nautical Twilight
Astronomical Twilight
Moon
Length of Visible Light
Length of Day
Tomorrow will be .
, % of the Moon is Illuminated

Today's Extremes

State Highs State Lows

Community

WunderPhotos

Upload Photos

1,851,789 photos uploaded!

WunderBlogs® & News

Nearby

Air Quality

  Air Quality AQ Index Pollutant
Not available.

Snow Depth

Station Depth Elevation

Earthquake Activity

City Distance Mag. Time & Date
Minimum magnitude displayed is 2.5.

Coastal Water Temperatures

Place Temperature

Stations

Nearby Weather Stations

Station Location Temp. Windchill Dew Point Humidity Wind Precip. Elev Updated Type